Time;durP1;ratioP1;P1;durP2;ratioP2;P2;SDS_P1;SDS_P2;PMS_P1;PMS_P2;Temp;Humidity;BMP_temperature;BMP_pressure;BME280_temperature;BME280_humidity;BME280_pressure;Samples;Min_cycle;Max_cycle;Signal;HPM_P1;HPM_P2
2021/08/14 00:00:59;;;;;;;31.17;5.80;;;14.40;99.90;;;;;;5045698;28;20059;-85
2021/08/14 00:03:25;;;;;;;26.95;5.43;;;14.40;99.90;;;;;;5045510;28;20041;-85
2021/08/14 00:05:51;;;;;;;25.25;6.32;;;14.40;99.90;;;;;;5020501;28;20049;-85
2021/08/14 00:08:17;;;;;;;20.25;5.18;;;14.40;99.90;;;;;;5059653;28;20037;-84
2021/08/14 00:10:42;;;;;;;31.70;7.75;;;14.40;99.90;;;;;;5074425;28;20049;-85
2021/08/14 00:13:08;;;;;;;25.55;6.28;;;14.30;99.90;;;;;;5049679;28;20044;-86
2021/08/14 00:15:34;;;;;;;21.17;5.63;;;14.20;99.90;;;;;;5081903;28;20050;-86
2021/08/14 00:18:00;;;;;;;25.48;6.68;;;14.20;99.90;;;;;;5062399;28;20457;-84
2021/08/14 00:20:26;;;;;;;30.75;5.85;;;14.10;99.90;;;;;;5049350;28;20033;-85
2021/08/14 00:22:52;;;;;;;18.95;5.85;;;14.10;99.90;;;;;;5063427;28;20049;-85
2021/08/14 00:25:18;;;;;;;29.98;6.47;;;14.00;99.90;;;;;;5064681;28;20041;-85
2021/08/14 00:27:44;;;;;;;25.63;5.28;;;14.00;99.90;;;;;;5049094;28;20127;-87
2021/08/14 00:30:10;;;;;;;21.50;5.15;;;14.00;99.90;;;;;;5049306;28;20059;-84
2021/08/14 00:32:36;;;;;;;25.25;6.35;;;14.00;99.90;;;;;;5048209;28;20045;-85
2021/08/14 00:35:02;;;;;;;26.65;6.30;;;14.10;99.90;;;;;;5063785;28;20225;-85
2021/08/14 00:37:27;;;;;;;21.20;5.70;;;14.10;99.90;;;;;;5048728;28;20068;-85
2021/08/14 00:39:53;;;;;;;29.05;5.85;;;14.10;99.90;;;;;;5019056;28;20071;-84
2021/08/14 00:42:19;;;;;;;20.38;5.40;;;14.00;99.90;;;;;;5047216;28;20045;-85
2021/08/14 00:44:45;;;;;;;30.35;6.18;;;14.00;99.90;;;;;;5063752;28;20044;-86
2021/08/14 00:47:11;;;;;;;22.65;4.82;;;14.00;99.90;;;;;;5081001;28;20092;-85
2021/08/14 00:49:36;;;;;;;16.88;5.28;;;14.00;99.90;;;;;;5049508;28;20041;-84
2021/08/14 00:52:02;;;;;;;23.13;4.97;;;14.00;99.90;;;;;;5063663;28;20080;-84
2021/08/14 00:54:28;;;;;;;20.23;5.18;;;13.90;99.90;;;;;;5064912;28;20044;-84
2021/08/14 00:56:55;;;;;;;20.60;5.18;;;13.90;99.90;;;;;;5063679;28;20041;-85
2021/08/14 00:59:21;;;;;;;24.08;5.50;;;13.90;99.90;;;;;;5081349;28;20377;-85
2021/08/14 01:01:47;;;;;;;20.40;5.78;;;13.90;99.90;;;;;;5030766;28;20488;-87
2021/08/14 01:04:13;;;;;;;29.17;5.47;;;13.90;99.90;;;;;;5047695;28;20132;-84
2021/08/14 01:06:39;;;;;;;26.60;4.32;;;13.90;99.90;;;;;;5049078;28;20473;-85
2021/08/14 01:09:05;;;;;;;21.85;5.72;;;14.00;99.90;;;;;;5061350;28;20120;-85
2021/08/14 01:11:31;;;;;;;23.02;5.90;;;14.00;99.90;;;;;;5016960;28;20491;-85
2021/08/14 01:13:57;;;;;;;20.25;5.05;;;14.00;99.90;;;;;;5058135;28;20053;-84
2021/08/14 01:16:25;;;;;;;22.48;6.22;;;14.00;99.90;;;;;;5048792;28;20044;-85
2021/08/14 01:18:51;;;;;;;27.23;6.90;;;14.00;99.90;;;;;;5063368;28;20062;-85
2021/08/14 01:21:22;;;;;;;25.45;5.60;;;14.00;99.90;;;;;;5064145;28;20040;-85
2021/08/14 01:23:49;;;;;;;23.95;5.45;;;13.90;99.90;;;;;;5048371;28;20104;-85
2021/08/14 01:26:16;;;;;;;30.42;6.22;;;13.90;99.90;;;;;;5063826;28;20080;-85
2021/08/14 01:28:43;;;;;;;16.45;5.88;;;13.80;99.90;;;;;;5027955;28;20037;-84
2021/08/14 01:31:11;;;;;;;18.38;5.75;;;13.80;99.90;;;;;;5024318;28;20065;-83
2021/08/14 01:33:39;;;;;;;21.23;6.22;;;13.70;99.90;;;;;;5045352;28;20061;-84
2021/08/14 01:36:10;;;;;;;17.50;5.00;;;13.70;99.90;;;;;;5029846;28;20067;-84
2021/08/14 01:38:50;;;;;;;22.00;5.93;;;13.70;99.90;;;;;;5030955;28;20432;-84
2021/08/14 01:41:17;;;;;;;18.80;5.78;;;13.70;99.90;;;;;;5048744;28;20079;-83
2021/08/14 01:44:12;;;;;;;22.40;4.82;;;13.60;99.90;;;;;;5064010;28;20044;-84
2021/08/14 01:46:41;;;;;;;22.88;6.50;;;13.60;99.90;;;;;;5030095;28;20057;-83
2021/08/14 01:49:08;;;;;;;21.33;6.05;;;13.60;99.90;;;;;;5063427;28;20135;-84
2021/08/14 01:51:35;;;;;;;20.60;5.95;;;13.60;99.90;;;;;;5064072;28;20037;-85
2021/08/14 01:54:04;;;;;;;27.63;6.22;;;13.50;99.90;;;;;;5048833;28;20496;-83
2021/08/14 01:56:30;;;;;;;20.92;5.75;;;13.60;99.90;;;;;;5066693;28;20072;-83
2021/08/14 01:58:56;;;;;;;30.48;6.32;;;13.50;99.90;;;;;;5066829;28;20041;-84
2021/08/14 02:01:23;;;;;;;24.50;6.57;;;13.50;99.90;;;;;;5051965;28;20051;-84
2021/08/14 02:03:49;;;;;;;21.83;6.22;;;13.60;99.90;;;;;;5051899;28;20127;-86
2021/08/14 02:06:17;;;;;;;19.58;5.85;;;13.60;99.90;;;;;;5033638;28;20141;-84
2021/08/14 02:08:43;;;;;;;21.17;5.80;;;13.60;99.90;;;;;;5083771;28;20366;-83
2021/08/14 02:11:20;;;;;;;22.95;6.80;;;13.70;99.90;;;;;;5037066;28;20047;-84
2021/08/14 02:13:48;;;;;;;29.63;7.05;;;13.70;99.90;;;;;;5052034;28;20041;-84
2021/08/14 02:16:15;;;;;;;18.45;5.53;;;13.70;99.90;;;;;;5032771;28;20288;-86
2021/08/14 02:18:41;;;;;;;25.20;6.80;;;13.80;99.90;;;;;;5052881;28;20048;-84
2021/08/14 02:21:08;;;;;;;22.63;5.68;;;13.80;99.90;;;;;;5050965;28;20041;-85
2021/08/14 02:23:35;;;;;;;26.50;5.93;;;13.80;99.90;;;;;;5067174;28;20045;-84
2021/08/14 02:26:01;;;;;;;26.15;5.85;;;13.80;99.90;;;;;;5050625;28;20044;-85
2021/08/14 02:28:28;;;;;;;26.17;6.13;;;13.90;99.90;;;;;;5033903;28;20098;-84
2021/08/14 02:30:55;;;;;;;26.00;6.03;;;13.90;99.90;;;;;;5048702;28;20397;-87
2021/08/14 02:33:21;;;;;;;22.88;5.80;;;13.90;99.90;;;;;;5050355;28;20048;-84
2021/08/14 02:35:47;;;;;;;32.05;7.35;;;13.90;99.90;;;;;;5066064;28;20552;-85
2021/08/14 02:38:13;;;;;;;25.10;6.60;;;13.90;99.90;;;;;;5061174;28;20033;-85
2021/08/14 02:40:39;;;;;;;16.67;5.88;;;13.90;99.90;;;;;;5026526;28;20131;-84
2021/08/14 02:43:05;;;;;;;21.05;5.70;;;13.90;99.90;;;;;;5047746;28;20396;-85
2021/08/14 02:45:32;;;;;;;20.60;6.10;;;14.00;99.90;;;;;;5057042;28;20046;-85
2021/08/14 02:48:01;;;;;;;25.00;6.13;;;14.00;99.90;;;;;;5052291;28;20053;-86
2021/08/14 02:50:28;;;;;;;30.02;5.97;;;14.00;99.90;;;;;;5043600;28;20040;-85
2021/08/14 02:52:57;;;;;;;32.28;6.60;;;14.00;99.90;;;;;;5049794;28;20061;-87
2021/08/14 02:55:23;;;;;;;19.30;6.20;;;14.00;99.90;;;;;;5049946;28;20473;-85
2021/08/14 02:57:49;;;;;;;23.98;6.30;;;14.10;99.90;;;;;;5066675;28;20052;-85
2021/08/14 03:00:15;;;;;;;16.70;5.50;;;14.10;99.90;;;;;;5030432;28;20045;-85
2021/08/14 03:02:41;;;;;;;19.70;5.28;;;14.10;99.90;;;;;;5049908;28;20041;-85
2021/08/14 03:05:08;;;;;;;18.33;5.32;;;14.10;99.90;;;;;;5030757;28;20041;-85
2021/08/14 03:07:34;;;;;;;20.02;5.60;;;14.20;99.90;;;;;;5039385;28;20046;-86
2021/08/14 03:10:00;;;;;;;34.92;5.97;;;14.20;99.90;;;;;;5029924;28;20524;-86
2021/08/14 03:12:26;;;;;;;25.85;5.35;;;14.20;99.90;;;;;;5046927;28;20095;-85
2021/08/14 03:14:53;;;;;;;24.70;6.50;;;14.30;99.90;;;;;;5013261;28;20073;-86
2021/08/14 03:17:19;;;;;;;28.45;5.22;;;14.30;99.90;;;;;;5027857;28;20067;-86
2021/08/14 03:19:45;;;;;;;27.27;6.45;;;14.30;99.90;;;;;;5049793;28;20488;-86
2021/08/14 03:22:11;;;;;;;27.02;6.00;;;14.30;99.90;;;;;;5065472;28;20048;-86
2021/08/14 03:24:37;;;;;;;32.50;6.80;;;14.40;99.90;;;;;;5049483;28;20404;-86
2021/08/14 03:27:04;;;;;;;23.75;7.03;;;14.40;99.90;;;;;;5065127;28;20048;-86
2021/08/14 03:29:30;;;;;;;20.15;5.40;;;14.40;99.90;;;;;;5065465;28;20037;-86
2021/08/14 03:31:56;;;;;;;25.73;6.20;;;14.40;99.90;;;;;;5065786;28;20128;-87
2021/08/14 03:34:21;;;;;;;21.20;5.70;;;14.40;99.90;;;;;;5065214;28;20477;-84
2021/08/14 03:36:47;;;;;;;24.30;5.55;;;14.50;99.90;;;;;;5065783;28;20049;-86
2021/08/14 03:39:13;;;;;;;24.73;5.95;;;14.40;99.90;;;;;;5049407;28;20063;-86
2021/08/14 03:41:39;;;;;;;28.02;6.10;;;14.40;99.90;;;;;;5068034;28;20049;-85
2021/08/14 03:44:05;;;;;;;25.48;6.35;;;14.40;99.90;;;;;;5048102;28;20409;-85
2021/08/14 03:46:31;;;;;;;25.73;7.30;;;14.40;99.90;;;;;;5049721;28;20048;-85
2021/08/14 03:48:57;;;;;;;26.60;7.07;;;14.40;99.90;;;;;;5065614;28;20059;-85
2021/08/14 03:51:23;;;;;;;25.00;6.47;;;14.50;99.90;;;;;;5064769;28;20743;-85
2021/08/14 03:53:49;;;;;;;17.70;5.72;;;14.50;99.90;;;;;;5048789;28;20132;-85
2021/08/14 03:56:15;;;;;;;25.08;6.82;;;14.50;99.90;;;;;;5064648;28;20493;-85
2021/08/14 03:58:41;;;;;;;23.65;6.28;;;14.50;99.90;;;;;;5064955;28;20041;-85
2021/08/14 04:01:07;;;;;;;29.08;6.22;;;14.50;99.90;;;;;;5064665;28;20045;-85
2021/08/14 04:03:33;;;;;;;29.70;7.57;;;14.50;99.90;;;;;;5064992;28;20033;-84
2021/08/14 04:06:00;;;;;;;18.77;6.45;;;14.50;99.90;;;;;;5065225;28;20049;-85
2021/08/14 04:08:26;;;;;;;31.23;7.53;;;14.50;99.90;;;;;;5031241;28;20067;-86
2021/08/14 04:10:52;;;;;;;20.88;5.57;;;14.50;99.90;;;;;;5035785;28;20388;-86
2021/08/14 04:13:18;;;;;;;28.65;7.55;;;14.50;99.90;;;;;;5063954;28;20075;-86
2021/08/14 04:15:44;;;;;;;24.30;6.53;;;14.50;99.90;;;;;;5048327;28;20442;-86
2021/08/14 04:18:09;;;;;;;25.25;6.40;;;14.50;99.90;;;;;;5064016;28;20131;-86
2021/08/14 04:20:36;;;;;;;34.08;7.38;;;14.50;99.90;;;;;;5064707;28;20046;-86
2021/08/14 04:23:02;;;;;;;21.77;6.40;;;14.50;99.90;;;;;;5075961;28;20408;-87
2021/08/14 04:25:29;;;;;;;41.67;7.65;;;14.50;99.90;;;;;;5031473;28;20483;-86
2021/08/14 04:27:55;;;;;;;26.52;6.43;;;14.60;99.90;;;;;;5031320;28;20049;-86
2021/08/14 04:30:22;;;;;;;31.13;6.60;;;14.60;99.90;;;;;;5064363;28;20113;-86
2021/08/14 04:32:49;;;;;;;24.27;6.18;;;14.60;99.90;;;;;;5048785;28;20049;-86
2021/08/14 04:35:15;;;;;;;27.08;6.28;;;14.60;99.90;;;;;;5030833;28;20052;-85
2021/08/14 04:37:42;;;;;;;30.48;6.65;;;14.70;99.90;;;;;;5064594;28;20072;-86
2021/08/14 04:40:10;;;;;;;35.13;6.53;;;14.60;99.90;;;;;;5034898;28;20147;-85
2021/08/14 04:42:36;;;;;;;27.58;6.95;;;14.70;99.90;;;;;;5048846;28;20559;-85
2021/08/14 04:45:04;;;;;;;27.67;6.55;;;14.70;99.90;;;;;;5064377;28;20083;-86
2021/08/14 04:47:36;;;;;;;24.92;5.90;;;14.70;99.90;;;;;;5063574;28;20480;-86
2021/08/14 04:50:06;;;;;;;25.23;6.85;;;14.80;99.90;;;;;;5048033;28;20033;-86
2021/08/14 04:52:32;;;;;;;29.77;7.45;;;14.80;99.90;;;;;;5080803;28;20041;-87
2021/08/14 04:54:58;;;;;;;29.20;6.70;;;14.80;99.90;;;;;;5064649;28;20044;-86
2021/08/14 04:57:24;;;;;;;28.40;6.60;;;14.80;99.90;;;;;;5063888;28;20037;-87
2021/08/14 04:59:50;;;;;;;28.55;6.65;;;14.80;99.90;;;;;;5047807;28;20400;-85
2021/08/14 05:02:16;;;;;;;31.48;6.72;;;14.90;99.90;;;;;;5047041;28;20044;-85
2021/08/14 05:04:44;;;;;;;34.92;7.47;;;14.90;99.90;;;;;;5049207;28;20049;-86
2021/08/14 05:07:11;;;;;;;36.10;6.85;;;14.90;99.90;;;;;;5047054;28;20483;-86
2021/08/14 05:09:38;;;;;;;32.75;6.30;;;15.00;99.90;;;;;;5057555;28;20452;-87
2021/08/14 05:12:05;;;;;;;28.65;6.45;;;15.00;99.90;;;;;;5057992;28;20098;-86
2021/08/14 05:14:35;;;;;;;25.50;6.03;;;15.10;99.90;;;;;;5048856;28;20041;-87
2021/08/14 05:17:02;;;;;;;32.28;6.63;;;15.10;99.90;;;;;;5049128;28;20098;-87
2021/08/14 05:19:28;;;;;;;24.42;6.25;;;15.20;99.90;;;;;;5029953;28;20030;-86
2021/08/14 05:21:54;;;;;;;28.77;6.65;;;15.20;99.90;;;;;;5049215;28;20393;-87
2021/08/14 05:24:19;;;;;;;29.05;7.00;;;15.30;99.90;;;;;;5063326;28;20554;-87
2021/08/14 05:26:45;;;;;;;27.42;6.28;;;15.30;99.90;;;;;;5064460;28;20059;-86
2021/08/14 05:29:12;;;;;;;28.63;6.80;;;15.40;99.90;;;;;;5031738;28;20147;-87
2021/08/14 05:31:38;;;;;;;25.13;6.30;;;15.40;99.90;;;;;;5051439;28;20421;-86
2021/08/14 05:34:05;;;;;;;32.88;7.75;;;15.40;99.90;;;;;;5034619;28;20473;-85
2021/08/14 05:36:34;;;;;;;29.38;6.57;;;15.50;99.90;;;;;;5047134;28;20103;-86
2021/08/14 05:39:01;;;;;;;27.00;6.78;;;15.50;99.90;;;;;;5042006;28;20103;-86
2021/08/14 05:41:26;;;;;;;27.00;6.78;;;15.60;99.90;;;;;;5067337;28;20049;-86
2021/08/14 05:43:55;;;;;;;26.88;7.10;;;15.70;99.90;;;;;;5052649;28;20396;-87
2021/08/14 05:46:21;;;;;;;26.17;6.63;;;15.70;99.90;;;;;;5051643;28;20055;-87
2021/08/14 05:48:46;;;;;;;26.42;6.30;;;15.80;99.90;;;;;;5068239;28;20041;-87
2021/08/14 05:51:13;;;;;;;23.63;6.60;;;15.80;99.90;;;;;;5052164;28;20040;-89
2021/08/14 05:53:39;;;;;;;29.90;7.13;;;15.90;99.90;;;;;;5067456;28;20049;-87
2021/08/14 05:56:05;;;;;;;26.80;6.53;;;15.90;99.90;;;;;;5052338;28;20041;-86
2021/08/14 05:58:32;;;;;;;28.10;6.28;;;16.00;99.90;;;;;;5066776;28;20285;-86
2021/08/14 06:00:57;;;;;;;30.77;7.53;;;16.10;99.90;;;;;;5051764;28;20041;-86
2021/08/14 06:03:23;;;;;;;24.88;5.97;;;16.20;99.90;;;;;;5051214;28;20401;-87
2021/08/14 06:05:49;;;;;;;25.23;6.30;;;16.20;99.90;;;;;;5051200;28;20052;-87
2021/08/14 06:08:15;;;;;;;22.00;6.72;;;16.30;99.90;;;;;;5050059;28;20400;-86
2021/08/14 06:10:42;;;;;;;24.98;7.15;;;16.30;99.90;;;;;;5053025;28;20075;-86
2021/08/14 06:13:08;;;;;;;22.38;5.97;;;16.40;99.90;;;;;;5067185;28;20068;-86
2021/08/14 06:15:34;;;;;;;25.20;6.45;;;16.40;99.90;;;;;;5066340;28;20116;-86
2021/08/14 06:17:59;;;;;;;35.95;7.45;;;16.40;99.90;;;;;;5050414;28;20457;-88
2021/08/14 06:20:27;;;;;;;23.17;6.50;;;16.40;99.90;;;;;;5060273;28;20041;-87
2021/08/14 06:22:53;;;;;;;24.83;6.53;;;16.40;99.90;;;;;;5060189;28;20501;-86
2021/08/14 06:25:20;;;;;;;23.70;6.30;;;16.50;99.90;;;;;;5027453;28;20076;-86
2021/08/14 06:27:46;;;;;;;32.38;7.10;;;16.60;99.90;;;;;;5031727;28;20069;-86
2021/08/14 06:30:12;;;;;;;29.90;6.32;;;16.70;99.90;;;;;;5046777;28;20493;-87
2021/08/14 06:32:39;;;;;;;31.98;6.97;;;16.90;99.90;;;;;;5055484;28;20050;-86
2021/08/14 06:35:05;;;;;;;29.60;7.28;;;17.10;99.90;;;;;;5049400;28;20049;-86
2021/08/14 06:37:43;;;;;;;24.70;6.60;;;17.20;99.90;;;;;;5033092;28;20184;-86
2021/08/14 06:40:12;;;;;;;24.05;6.88;;;17.40;99.90;;;;;;5046856;28;20068;-87
2021/08/14 06:42:38;;;;;;;29.10;7.32;;;17.50;99.90;;;;;;5046241;28;20473;-87
2021/08/14 06:45:05;;;;;;;23.35;6.40;;;17.60;99.90;;;;;;5046562;28;20049;-87
2021/08/14 06:47:32;;;;;;;28.77;7.15;;;17.70;99.90;;;;;;5035732;28;20389;-85
2021/08/14 06:49:58;;;;;;;32.90;6.38;;;17.80;99.90;;;;;;5049469;28;20164;-87
2021/08/14 06:52:24;;;;;;;27.73;6.63;;;17.90;99.90;;;;;;5030845;28;20045;-86
2021/08/14 06:54:51;;;;;;;22.55;6.53;;;17.90;99.90;;;;;;5042091;28;20096;-87
2021/08/14 06:57:17;;;;;;;26.80;6.38;;;17.90;99.90;;;;;;5069280;28;20037;-87
2021/08/14 06:59:43;;;;;;;25.70;6.72;;;18.00;99.90;;;;;;5046264;28;20091;-88
2021/08/14 07:02:09;;;;;;;24.05;5.97;;;18.00;99.90;;;;;;5037370;28;20052;-86
2021/08/14 07:04:41;;;;;;;25.52;6.50;;;18.10;99.90;;;;;;5044862;28;20359;-87
2021/08/14 07:07:07;;;;;;;31.33;7.35;;;18.20;99.90;;;;;;5045887;28;20045;-86
2021/08/14 07:09:36;;;;;;;31.95;7.40;;;18.30;99.90;;;;;;5057345;28;20048;-86
2021/08/14 07:12:03;;;;;;;27.37;6.33;;;18.40;99.90;;;;;;5066091;28;20114;-86
2021/08/14 07:14:28;;;;;;;24.92;6.28;;;18.50;99.90;;;;;;5065028;28;20115;-87
2021/08/14 07:16:54;;;;;;;27.45;6.15;;;18.60;99.90;;;;;;5049984;28;20135;-86
2021/08/14 07:19:20;;;;;;;21.20;5.60;;;18.70;99.90;;;;;;5065566;28;20128;-88
2021/08/14 07:21:46;;;;;;;31.30;6.70;;;18.80;99.90;;;;;;5065966;28;20541;-87
2021/08/14 07:24:12;;;;;;;21.05;6.05;;;18.90;99.90;;;;;;5065761;28;20049;-86
2021/08/14 07:26:38;;;;;;;21.38;6.15;;;19.00;99.90;;;;;;5065248;28;20132;-87
2021/08/14 07:29:04;;;;;;;28.00;6.50;;;19.20;99.90;;;;;;5068904;28;20048;-87
2021/08/14 07:31:30;;;;;;;23.75;6.15;;;19.40;99.90;;;;;;5064365;28;20098;-86
2021/08/14 07:33:56;;;;;;;29.85;7.05;;;19.40;99.90;;;;;;5049867;28;20110;-87
2021/08/14 07:36:23;;;;;;;29.15;5.95;;;19.40;99.90;;;;;;5065254;28;20037;-89
2021/08/14 07:38:49;;;;;;;26.75;5.97;;;19.50;99.90;;;;;;5065604;28;20404;-86
2021/08/14 07:41:14;;;;;;;20.85;5.60;;;19.70;99.90;;;;;;5065574;28;20143;-85
2021/08/14 07:43:40;;;;;;;32.45;7.57;;;19.80;99.90;;;;;;5031469;28;20114;-86
2021/08/14 07:46:09;;;;;;;21.98;5.25;;;19.80;99.90;;;;;;5049893;28;20119;-85
2021/08/14 07:48:35;;;;;;;22.38;5.88;;;19.70;99.90;;;;;;5060356;28;20115;-88
2021/08/14 07:51:01;;;;;;;19.98;5.95;;;19.80;99.90;;;;;;5027919;28;20477;-86
2021/08/14 07:53:28;;;;;;;23.45;6.10;;;19.90;99.90;;;;;;5025243;28;20474;-85
2021/08/14 07:55:54;;;;;;;24.02;5.45;;;20.00;99.90;;;;;;5027632;28;20065;-85
2021/08/14 07:58:20;;;;;;;19.50;5.53;;;20.10;99.90;;;;;;5057317;28;20072;-85
2021/08/14 08:00:46;;;;;;;22.17;5.38;;;20.10;99.90;;;;;;5057745;28;20060;-85
2021/08/14 08:03:11;;;;;;;22.27;5.20;;;20.20;99.90;;;;;;5054375;28;20042;-85
2021/08/14 08:05:38;;;;;;;23.05;5.65;;;20.30;99.90;;;;;;5041058;28;20486;-85
2021/08/14 08:08:04;;;;;;;28.25;6.50;;;20.20;99.90;;;;;;5027037;28;20038;-85
2021/08/14 08:10:32;;;;;;;24.40;5.68;;;20.20;99.90;;;;;;5025039;28;20045;-85
2021/08/14 08:12:58;;;;;;;20.38;5.25;;;20.20;99.90;;;;;;5026760;28;20069;-85
2021/08/14 08:15:24;;;;;;;23.98;6.05;;;20.30;99.90;;;;;;5059095;28;20041;-87
2021/08/14 08:17:50;;;;;;;26.98;6.50;;;20.30;99.90;;;;;;5058959;28;20508;-85
2021/08/14 08:20:18;;;;;;;28.90;5.32;;;20.30;99.90;;;;;;5060627;28;20072;-84
2021/08/14 08:22:44;;;;;;;25.23;6.47;;;20.30;99.90;;;;;;5025969;28;20045;-85
2021/08/14 08:25:12;;;;;;;18.13;5.60;;;20.50;99.90;;;;;;5026417;28;20107;-84
2021/08/14 08:27:40;;;;;;;20.15;5.28;;;20.50;99.90;;;;;;5024992;28;20041;-84
2021/08/14 08:30:08;;;;;;;25.42;5.97;;;20.60;99.90;;;;;;5027014;28;20120;-83
2021/08/14 08:32:34;;;;;;;25.10;5.43;;;20.60;99.90;;;;;;5027676;28;20047;-85
2021/08/14 08:35:00;;;;;;;20.25;5.15;;;20.60;99.90;;;;;;5025641;28;20045;-84
2021/08/14 08:37:26;;;;;;;15.77;4.50;;;20.70;99.90;;;;;;5009688;28;20553;-85
2021/08/14 08:39:52;;;;;;;19.50;4.75;;;20.70;99.90;;;;;;5022300;28;20054;-84
2021/08/14 08:42:19;;;;;;;21.73;5.32;;;20.90;99.90;;;;;;5052789;28;20107;-83
2021/08/14 08:44:45;;;;;;;16.35;4.72;;;20.90;99.90;;;;;;5041129;28;20614;-84
2021/08/14 08:47:11;;;;;;;21.35;4.90;;;21.00;99.90;;;;;;5018133;28;20136;-83
2021/08/14 08:49:49;;;;;;;19.90;5.68;;;21.20;99.90;;;;;;5017198;28;20038;-83
2021/08/14 08:52:15;;;;;;;20.25;5.05;;;21.20;99.90;;;;;;5024237;28;20042;-83
2021/08/14 08:54:41;;;;;;;14.88;4.22;;;21.20;99.90;;;;;;5012882;28;20493;-83
2021/08/14 08:57:06;;;;;;;17.40;5.13;;;21.30;99.90;;;;;;5018323;28;20049;-82
2021/08/14 08:59:32;;;;;;;15.18;4.40;;;21.40;99.90;;;;;;5016287;28;20096;-84
2021/08/14 09:01:58;;;;;;;20.00;5.18;;;21.50;99.90;;;;;;5048298;28;20045;-83
2021/08/14 09:04:26;;;;;;;23.98;4.63;;;21.60;99.90;;;;;;5037270;28;20061;-85
2021/08/14 09:06:53;;;;;;;15.45;4.25;;;21.60;99.90;;;;;;5029737;28;20055;-83
2021/08/14 09:09:32;;;;;;;18.40;4.82;;;21.80;99.90;;;;;;5020352;28;20125;-83
2021/08/14 09:12:02;;;;;;;;;;;21.80;99.90;;;;;;5025715;28;20045;-83
2021/08/14 09:14:43;;;;;;;14.75;4.57;;;21.80;99.90;;;;;;5032259;28;19925;-84
2021/08/14 09:17:09;;;;;;;22.90;5.60;;;21.80;99.90;;;;;;5047103;28;20125;-84
2021/08/14 09:19:36;;;;;;;12.60;4.30;;;21.80;99.90;;;;;;5010276;28;20088;-83
2021/08/14 09:22:23;;;;;;;12.07;4.05;;;21.90;99.90;;;;;;5023977;28;20037;-84
2021/08/14 09:24:49;;;;;;;16.95;4.63;;;21.90;99.90;;;;;;5064144;28;20722;-84
2021/08/14 09:27:15;;;;;;;16.58;4.45;;;22.00;99.90;;;;;;5031190;28;20082;-83
2021/08/14 09:29:43;;;;;;;11.63;4.28;;;22.10;99.90;;;;;;5030752;28;20040;-84
2021/08/14 09:32:11;;;;;;;16.23;5.30;;;22.20;99.90;;;;;;5027526;28;20037;-84
2021/08/14 09:34:43;;;;;;;13.30;5.15;;;22.00;99.90;;;;;;5028910;28;20037;-84
2021/08/14 09:37:12;;;;;;;16.23;4.70;;;22.20;99.90;;;;;;5030471;28;20064;-85
2021/08/14 09:40:01;;;;;;;12.68;4.57;;;22.30;99.90;;;;;;5028813;28;20398;-84
2021/08/14 09:42:27;;;;;;;15.05;4.65;;;22.40;99.90;;;;;;5031116;28;20114;-84
2021/08/14 09:45:14;;;;;;;11.70;3.95;;;22.40;99.90;;;;;;5031898;28;20073;-84
2021/08/14 09:47:41;;;;;;;17.02;4.20;;;22.70;99.90;;;;;;5042390;28;20049;-84
2021/08/14 09:50:08;;;;;;;13.77;3.78;;;22.70;99.90;;;;;;5066945;28;20045;-83
2021/08/14 09:52:33;;;;;;;18.17;4.28;;;22.50;99.90;;;;;;5051298;28;20479;-86
2021/08/14 09:54:59;;;;;;;18.65;4.55;;;22.50;99.90;;;;;;5052140;28;20116;-84
2021/08/14 09:57:25;;;;;;;11.10;3.72;;;22.50;99.90;;;;;;5051932;28;20064;-83
2021/08/14 09:59:52;;;;;;;14.60;4.40;;;22.50;99.90;;;;;;5066225;28;20607;-83
2021/08/14 10:02:23;;;;;;;14.88;4.55;;;22.60;99.90;;;;;;5034030;28;20070;-83
2021/08/14 10:04:50;;;;;;;14.52;4.53;;;22.80;99.90;;;;;;5050997;28;20109;-83
2021/08/14 10:07:17;;;;;;;11.73;4.50;;;23.00;99.90;;;;;;5050445;28;20560;-85
2021/08/14 10:09:47;;;;;;;13.52;4.03;;;23.10;99.90;;;;;;5013442;28;20496;-84
2021/08/14 10:12:16;;;;;;;14.90;4.00;;;23.10;99.90;;;;;;5045806;28;20037;-83
2021/08/14 10:14:43;;;;;;;18.00;4.30;;;23.10;99.90;;;;;;5040285;28;20052;-84
2021/08/14 10:17:10;;;;;;;12.77;3.67;;;23.10;99.90;;;;;;5041824;28;20397;-84
2021/08/14 10:19:37;;;;;;;21.83;4.05;;;23.20;99.90;;;;;;5044237;28;20116;-86
2021/08/14 10:22:04;;;;;;;16.80;3.97;;;23.10;99.90;;;;;;5046957;28;20068;-84
2021/08/14 10:24:41;;;;;;;14.73;4.32;;;23.00;99.90;;;;;;5052868;28;20048;-85
2021/08/14 10:27:08;;;;;;;15.68;4.88;;;22.80;99.90;;;;;;5046656;28;20138;-84
2021/08/14 10:29:49;;;;;;;10.38;3.83;;;22.70;99.90;;;;;;5054508;28;20444;-86
2021/08/14 10:32:37;;;;;;;12.02;3.45;;;22.70;99.90;;;;;;5033574;28;20478;-84
2021/08/14 10:35:12;;;;;;;13.15;4.35;;;22.60;99.90;;;;;;5032296;28;20058;-85
2021/08/14 10:37:40;;;;;;;15.85;4.35;;;22.70;99.90;;;;;;5057268;28;20112;-86
2021/08/14 10:40:07;;;;;;;17.02;4.35;;;22.80;99.90;;;;;;5035790;28;20158;-85
2021/08/14 10:42:54;;;;;;;13.00;3.65;;;22.90;99.90;;;;;;5049530;28;20115;-84
2021/08/14 10:45:24;;;;;;;15.38;5.38;;;22.90;99.90;;;;;;5048321;28;20051;-84
2021/08/14 10:47:50;;;;;;;15.35;4.05;;;23.00;99.90;;;;;;5049581;28;20099;-83
2021/08/14 10:50:31;;;;;;;17.30;4.80;;;23.00;99.90;;;;;;5045643;28;20049;-85
2021/08/14 10:53:20;;;;;;;18.48;4.20;;;23.20;99.90;;;;;;5056747;28;20069;-84
2021/08/14 10:55:51;;;;;;;21.00;4.95;;;23.10;99.90;;;;;;5046595;28;20366;-84
2021/08/14 10:58:23;;;;;;;19.30;5.13;;;23.20;99.90;;;;;;5050495;28;20045;-85
2021/08/14 11:00:51;;;;;;;18.65;5.25;;;23.20;99.90;;;;;;5058636;28;20534;-83
2021/08/14 11:03:20;;;;;;;17.88;4.03;;;23.30;99.90;;;;;;5048353;28;20044;-85
2021/08/14 11:05:46;;;;;;;10.65;4.15;;;23.30;99.90;;;;;;5043811;28;20045;-83
2021/08/14 11:08:27;;;;;;;17.92;4.68;;;23.20;99.90;;;;;;5053333;28;20048;-83
2021/08/14 11:10:53;;;;;;;18.98;4.40;;;23.30;99.90;;;;;;5045242;28;20048;-84
2021/08/14 11:13:31;;;;;;;15.45;4.57;;;23.40;99.90;;;;;;5043629;28;20045;-84
2021/08/14 11:15:58;;;;;;;15.93;4.13;;;23.40;99.90;;;;;;5047133;28;20045;-84
2021/08/14 11:18:56;;;;;;;13.20;3.78;;;23.30;99.90;;;;;;5049490;28;20041;-84
2021/08/14 11:21:44;;;;;;;12.63;4.68;;;23.30;99.90;;;;;;5040573;28;20083;-84
2021/08/14 11:24:35;;;;;;;17.80;4.13;;;23.20;99.90;;;;;;5031964;28;20095;-83
2021/08/14 11:27:01;;;;;;;16.58;4.55;;;23.00;99.90;;;;;;5031204;28;20741;-83
2021/08/14 11:29:27;;;;;;;18.85;4.22;;;23.00;99.90;;;;;;5057415;28;20064;-84
2021/08/14 11:31:55;;;;;;;18.48;4.78;;;22.90;99.90;;;;;;5047673;28;20053;-83
2021/08/14 11:34:23;;;;;;;15.52;4.15;;;23.20;99.90;;;;;;5048250;28;20412;-84
2021/08/14 11:36:59;;;;;;;17.15;3.75;;;23.30;99.90;;;;;;5072309;28;20508;-84
2021/08/14 11:39:31;;;;;;;12.82;4.22;;;23.50;99.90;;;;;;5050827;28;20103;-83
2021/08/14 11:41:57;;;;;;;14.20;3.95;;;23.70;99.90;;;;;;5031516;28;20045;-83
2021/08/14 11:44:25;;;;;;;14.88;3.78;;;23.70;99.90;;;;;;5054824;28;20666;-83
2021/08/14 11:47:07;;;;;;;14.60;3.47;;;23.70;99.90;;;;;;5046248;28;20076;-84
2021/08/14 11:49:55;;;;;;;14.77;3.88;;;23.60;99.90;;;;;;5036768;28;20505;-83
2021/08/14 11:52:23;;;;;;;12.85;3.65;;;23.50;99.90;;;;;;5051072;28;20056;-83
2021/08/14 11:54:55;;;;;;;16.92;4.53;;;23.40;99.90;;;;;;5041196;28;20052;-83
2021/08/14 11:57:26;;;;;;;14.15;4.13;;;23.70;99.90;;;;;;5032303;28;20047;-83
2021/08/14 11:59:52;;;;;;;8.32;3.25;;;23.70;99.90;;;;;;5047900;28;20048;-84
2021/08/14 12:02:18;;;;;;;10.05;3.40;;;23.90;99.90;;;;;;5046372;28;20037;-83
2021/08/14 12:04:44;;;;;;;9.82;3.13;;;24.10;99.90;;;;;;5051674;28;20053;-85
2021/08/14 12:07:13;;;;;;;7.97;3.15;;;24.20;99.90;;;;;;5051584;28;20057;-83
2021/08/14 12:09:39;;;;;;;10.80;3.22;;;24.20;99.90;;;;;;5027356;28;20041;-83
2021/08/14 12:12:05;;;;;;;7.30;3.08;;;23.90;99.90;;;;;;5048810;28;20595;-84
2021/08/14 12:14:42;;;;;;;13.05;3.30;;;23.70;99.90;;;;;;5048886;28;20059;-83
2021/08/14 12:17:08;;;;;;;12.38;3.60;;;23.70;99.90;;;;;;5049126;28;20049;-85
2021/08/14 12:19:34;;;;;;;17.63;3.83;;;23.60;99.90;;;;;;5064525;28;20086;-84
2021/08/14 12:22:11;;;;;;;7.05;2.38;;;23.40;99.90;;;;;;5048320;28;20382;-83
2021/08/14 12:24:38;;;;;;;7.53;3.13;;;23.50;99.90;;;;;;5049066;28;20067;-84
2021/08/14 12:27:34;;;;;;;10.05;2.55;;;23.20;99.90;;;;;;5048032;28;20060;-83
2021/08/14 12:30:20;;;;;;;5.55;2.35;;;23.20;99.30;;;;;;5048417;28;20045;-83
2021/08/14 12:32:47;;;;;;;8.90;2.60;;;23.50;98.70;;;;;;5048435;28;20045;-85
2021/08/14 12:35:13;;;;;;;5.85;2.05;;;23.70;98.00;;;;;;5031419;28;20052;-83
2021/08/14 12:37:39;;;;;;;4.15;2.30;;;23.80;98.30;;;;;;5048306;28;20040;-83
2021/08/14 12:40:06;;;;;;;10.95;2.45;;;24.00;98.50;;;;;;5063350;28;20175;-84
2021/08/14 12:42:34;;;;;;;5.63;1.92;;;24.20;96.40;;;;;;5064320;28;20083;-83